createdAt,value
2018-05-12T00:00:05.150Z,5.68
2018-05-12T00:02:35.231Z,5.67
2018-05-12T00:05:05.638Z,5.18
2018-05-12T00:07:35.724Z,5.93
2018-05-12T00:10:05.801Z,5.80
2018-05-12T00:12:36.224Z,5.85
2018-05-12T00:15:07.051Z,5.57
2018-05-12T00:17:37.912Z,5.80
2018-05-12T00:20:08.368Z,5.35
2018-05-12T00:22:38.460Z,5.57
2018-05-12T00:25:09.166Z,5.45
2018-05-12T00:27:39.619Z,5.43
2018-05-12T00:30:09.690Z,5.37
2018-05-12T00:32:40.926Z,6.18
2018-05-12T00:35:11.355Z,5.70
2018-05-12T00:37:41.458Z,5.20
2018-05-12T00:40:12.633Z,5.80
2018-05-12T00:42:42.716Z,5.67
2018-05-12T00:45:12.791Z,5.67
2018-05-12T00:47:44.269Z,5.32
2018-05-12T00:50:14.339Z,5.70
2018-05-12T00:52:44.771Z,5.68
2018-05-12T00:55:14.100Z,5.90
2018-05-12T00:57:44.972Z,5.67
2018-05-12T01:00:15.366Z,5.65
2018-05-12T01:02:46.231Z,5.33
2018-05-12T01:05:16.631Z,5.45
2018-05-12T01:07:47.254Z,5.05
2018-05-12T01:10:17.319Z,5.70
2018-05-12T01:12:47.434Z,5.30
2018-05-12T01:15:17.840Z,5.07
2018-05-12T01:17:47.918Z,5.50
2018-05-12T01:20:18.535Z,5.40
2018-05-12T01:22:48.378Z,5.83
2018-05-12T01:25:18.992Z,5.15
2018-05-12T01:27:50.211Z,5.55
2018-05-12T01:30:20.286Z,5.13
2018-05-12T01:32:51.473Z,5.72
2018-05-12T01:35:21.890Z,5.05
2018-05-12T01:37:52.743Z,5.23
2018-05-12T01:40:23.566Z,5.10
2018-05-12T01:42:54.194Z,5.15
2018-05-12T01:45:25.037Z,5.37
2018-05-12T01:47:55.459Z,5.35
2018-05-12T01:50:26.304Z,5.27
2018-05-12T01:52:56.940Z,5.37
2018-05-12T01:55:27.771Z,5.20
2018-05-12T01:57:58.192Z,5.55
2018-05-12T02:00:28.243Z,5.47
2018-05-12T02:02:58.942Z,5.40
2018-05-12T02:05:29.382Z,5.35
2018-05-12T02:07:59.470Z,5.60
2018-05-12T02:10:30.172Z,4.90
2018-05-12T02:13:00.827Z,5.40
2018-05-12T02:15:31.409Z,5.00
2018-05-12T02:18:02.270Z,5.23
2018-05-12T02:20:32.672Z,4.95
2018-05-12T02:23:03.299Z,5.10
2018-05-12T02:25:34.134Z,5.20
2018-05-12T02:28:04.570Z,5.47
2018-05-12T02:30:35.399Z,5.50
2018-05-12T02:33:05.839Z,5.90
2018-05-12T02:35:35.895Z,5.20
2018-05-12T02:38:06.323Z,4.93
2018-05-12T02:40:36.764Z,5.07
2018-05-12T02:43:06.838Z,5.87
2018-05-12T02:45:36.943Z,5.03
2018-05-12T02:48:07.644Z,5.47
2018-05-12T02:50:38.235Z,4.90
2018-05-12T02:53:09.614Z,4.82
2018-05-12T02:55:39.473Z,5.20
2018-05-12T02:58:10.342Z,5.30
2018-05-12T03:00:40.835Z,5.25
2018-05-12T03:03:12.233Z,5.30
2018-05-12T03:05:42.827Z,4.78
2018-05-12T03:08:12.935Z,5.30
2018-05-12T03:10:43.796Z,4.90
2018-05-12T03:13:15.275Z,5.30
2018-05-12T03:15:45.698Z,5.20
2018-05-12T03:18:16.627Z,4.90
2018-05-12T03:20:46.808Z,5.23
2018-05-12T03:23:17.237Z,5.47
2018-05-12T03:25:47.289Z,5.33
2018-05-12T03:28:17.161Z,5.60
2018-05-12T03:30:48.173Z,5.40
2018-05-12T03:33:18.291Z,5.20
2018-05-12T03:35:48.711Z,5.20
2018-05-12T03:38:19.343Z,5.10
2018-05-12T03:40:49.769Z,5.07
2018-05-12T03:43:20.224Z,5.22
2018-05-12T03:45:50.819Z,4.75
2018-05-12T03:48:21.266Z,5.20
2018-05-12T03:50:52.098Z,5.03
2018-05-12T03:53:23.483Z,5.05
2018-05-12T03:55:53.567Z,5.00
2018-05-12T03:58:24.182Z,5.25
2018-05-12T04:00:54.264Z,5.20
2018-05-12T04:03:24.893Z,5.32
2018-05-12T04:06:12.519Z,5.15
2018-05-12T04:22:21.199Z,4.93
2018-05-12T04:24:51.628Z,4.87
2018-05-12T04:27:22.066Z,4.80
2018-05-12T04:29:52.486Z,5.03
2018-05-12T04:32:23.351Z,5.20
2018-05-12T04:34:54.699Z,5.03
2018-05-12T04:37:24.788Z,5.07
2018-05-12T04:39:55.372Z,4.97
2018-05-12T04:42:26.012Z,5.28
2018-05-12T04:44:56.602Z,5.10
2018-05-12T04:47:27.455Z,5.67
2018-05-12T04:49:58.160Z,5.07
2018-05-12T04:52:28.245Z,5.20
2018-05-12T04:54:58.831Z,4.95
2018-05-12T04:57:29.686Z,5.60
2018-05-12T05:00:00.516Z,5.33
2018-05-12T05:02:30.923Z,4.78
2018-05-12T05:05:01.346Z,5.43
2018-05-12T05:07:31.446Z,5.33
2018-05-12T05:10:01.835Z,5.05
2018-05-12T05:12:32.450Z,4.85
2018-05-12T05:15:03.799Z,5.10
2018-05-12T05:17:33.903Z,5.33
2018-05-12T05:20:05.252Z,5.35
2018-05-12T05:22:35.337Z,5.40
2018-05-12T05:25:05.688Z,5.15
2018-05-12T05:27:36.143Z,5.50
2018-05-12T05:30:06.736Z,4.62
2018-05-12T05:32:36.835Z,5.20
2018-05-12T05:35:07.448Z,5.20
2018-05-12T05:37:37.902Z,5.12
2018-05-12T05:40:08.507Z,4.82
2018-05-12T05:42:39.147Z,5.10
2018-05-12T05:45:09.214Z,5.40
2018-05-12T05:47:39.835Z,5.20
2018-05-12T05:50:09.981Z,5.40
2018-05-12T05:52:40.526Z,5.07
2018-05-12T05:55:11.098Z,4.75
2018-05-12T05:57:41.201Z,5.70
2018-05-12T06:00:11.673Z,5.62
2018-05-12T06:02:41.754Z,5.17
2018-05-12T06:05:12.466Z,6.00
2018-05-12T06:07:43.332Z,5.97
2018-05-12T06:10:14.023Z,5.82
2018-05-12T06:12:44.117Z,5.70
2018-05-12T06:15:14.730Z,6.07
2018-05-12T06:17:44.823Z,6.10
2018-05-12T06:20:15.655Z,5.77
2018-05-12T06:22:46.079Z,5.57
2018-05-12T06:25:16.147Z,5.63
2018-05-12T06:27:46.312Z,5.50
2018-05-12T06:30:17.055Z,5.87
2018-05-12T06:32:47.919Z,5.93
2018-05-12T06:35:18.327Z,5.37
2018-05-12T06:37:49.179Z,5.47
2018-05-12T06:40:19.887Z,5.87
2018-05-12T06:42:50.517Z,5.53
2018-05-12T06:45:20.596Z,5.97
2018-05-12T06:47:51.322Z,5.65
2018-05-12T06:50:21.396Z,5.83
2018-05-12T06:52:52.601Z,5.45
2018-05-12T06:55:22.847Z,6.10
2018-05-12T06:57:53.736Z,5.73
2018-05-12T07:00:24.347Z,6.10
2018-05-12T07:02:55.206Z,5.80
2018-05-12T07:05:25.929Z,5.60
2018-05-12T07:07:56.799Z,5.53
2018-05-12T07:10:26.926Z,6.07
2018-05-12T07:12:57.011Z,6.10
2018-05-12T07:15:27.427Z,6.62
2018-05-12T07:17:58.302Z,6.03
2018-05-12T07:20:28.782Z,6.25
2018-05-12T07:22:58.988Z,6.10
2018-05-12T07:25:29.074Z,6.40
2018-05-12T07:27:59.224Z,6.03
2018-05-12T07:30:29.622Z,6.60
2018-05-12T07:32:59.724Z,6.33
2018-05-12T07:35:30.220Z,6.10
2018-05-12T07:38:00.435Z,6.30
2018-05-12T07:40:30.868Z,6.87
2018-05-12T07:43:01.322Z,6.60
2018-05-12T07:45:31.455Z,6.13
2018-05-12T07:48:02.044Z,6.45
2018-05-12T07:50:32.107Z,6.77
2018-05-12T07:53:02.822Z,6.85
2018-05-12T07:55:32.886Z,6.63
2018-05-12T07:58:03.611Z,6.57
2018-05-12T08:00:33.675Z,7.20
2018-05-12T08:03:04.112Z,6.68
2018-05-12T08:05:34.181Z,7.07
2018-05-12T08:08:04.595Z,6.82
2018-05-12T08:10:35.432Z,6.60
2018-05-12T08:13:05.550Z,6.63
2018-05-12T08:15:35.963Z,6.85
2018-05-12T08:18:06.835Z,6.60
2018-05-12T08:20:37.241Z,7.00
2018-05-12T08:23:07.527Z,6.73
2018-05-12T08:25:37.591Z,6.70
2018-05-12T08:28:08.454Z,6.87
2018-05-12T08:30:38.863Z,6.57
2018-05-12T08:33:09.709Z,6.90
2018-05-12T08:35:39.778Z,6.37
2018-05-12T08:38:10.971Z,6.87
2018-05-12T08:40:41.808Z,6.60
2018-05-12T08:43:12.663Z,7.20
2018-05-12T08:45:43.080Z,6.95
2018-05-12T08:48:13.179Z,7.07
2018-05-12T08:50:43.583Z,7.37
2018-05-12T08:53:13.676Z,6.43
2018-05-12T08:55:44.095Z,6.43
2018-05-12T08:58:14.196Z,6.80
2018-05-12T09:00:45.030Z,6.60
2018-05-12T09:03:15.150Z,6.60
2018-05-12T09:05:45.566Z,6.82
2018-05-12T09:08:16.443Z,6.17
2018-05-12T09:10:47.784Z,6.70
2018-05-12T09:13:18.238Z,7.28
2018-05-12T09:15:48.315Z,6.13
2018-05-12T09:18:18.756Z,6.50
2018-05-12T09:20:49.575Z,7.07
2018-05-12T09:23:20.006Z,7.45
2018-05-12T09:25:50.847Z,7.50
2018-05-12T09:28:21.262Z,7.22
2018-05-12T09:30:51.358Z,9.90
2018-05-12T09:33:22.554Z,7.47
2018-05-12T09:35:52.626Z,7.40
2018-05-12T09:38:23.830Z,7.60
2018-05-12T09:40:53.912Z,7.63
2018-05-12T09:43:24.556Z,9.73
2018-05-12T09:45:55.248Z,12.00
2018-05-12T09:48:25.988Z,15.02
2018-05-12T09:50:56.691Z,13.13
2018-05-12T09:53:27.424Z,15.10
2018-05-12T09:55:58.113Z,13.07
2018-05-12T09:58:28.216Z,9.37
2018-05-12T10:00:59.395Z,11.77
2018-05-12T10:03:30.328Z,8.37
2018-05-12T10:06:00.879Z,9.35
2018-05-12T10:08:31.743Z,8.23
2018-05-12T10:11:02.142Z,6.90
2018-05-12T10:13:32.420Z,6.23
2018-05-12T10:16:02.574Z,6.37
2018-05-12T10:18:33.015Z,7.70
2018-05-12T10:21:03.929Z,6.40
2018-05-12T10:23:35.330Z,7.07
2018-05-12T10:26:05.191Z,7.93
2018-05-12T10:28:36.392Z,6.93
2018-05-12T10:31:06.510Z,8.07
2018-05-12T10:33:37.237Z,10.82
2018-05-12T10:36:08.080Z,8.30
2018-05-12T10:38:38.525Z,7.75
2018-05-12T10:41:08.587Z,8.80
2018-05-12T10:43:39.786Z,7.78
2018-05-12T10:46:09.864Z,7.33
2018-05-12T10:48:40.569Z,10.13
2018-05-12T10:51:10.622Z,7.10
2018-05-12T10:53:42.099Z,8.38
2018-05-12T10:56:12.175Z,7.50
2018-05-12T10:58:42.620Z,8.35
2018-05-12T11:01:13.055Z,6.45
2018-05-12T11:03:43.160Z,7.60
2018-05-12T11:06:14.331Z,9.45
2018-05-12T11:08:44.985Z,10.45
2018-05-12T11:11:15.815Z,6.57
2018-05-12T11:13:46.532Z,9.20
2018-05-12T11:16:17.215Z,11.12
2018-05-12T11:18:47.295Z,8.00
2018-05-12T11:21:17.690Z,6.15
2018-05-12T11:23:47.774Z,7.00
2018-05-12T11:26:17.861Z,9.17
2018-05-12T11:28:48.599Z,9.23
2018-05-12T11:31:20.771Z,12.48
2018-05-12T11:33:51.431Z,10.60
2018-05-12T11:36:21.499Z,8.23
2018-05-12T11:38:52.118Z,9.00
2018-05-12T11:41:22.992Z,9.33
2018-05-12T11:43:53.414Z,10.70
2018-05-12T11:46:24.263Z,9.50
2018-05-12T11:48:54.691Z,6.95
2018-05-12T11:51:25.604Z,8.50
2018-05-12T11:53:56.183Z,8.13
2018-05-12T11:56:26.254Z,7.07
2018-05-12T11:58:57.451Z,7.40
2018-05-12T12:01:27.522Z,6.67
2018-05-12T12:03:58.719Z,7.50
2018-05-12T12:06:28.781Z,6.43
2018-05-12T12:08:59.986Z,6.18
2018-05-12T12:11:30.055Z,6.43
2018-05-12T12:14:00.772Z,7.18
2018-05-12T12:16:30.863Z,5.47
2018-05-12T12:19:01.487Z,6.18
2018-05-12T12:21:32.314Z,6.10
2018-05-12T12:24:03.184Z,6.03
2018-05-12T12:26:33.234Z,6.93
2018-05-12T12:29:03.335Z,7.50
2018-05-12T12:31:33.727Z,5.30
2018-05-12T12:34:03.827Z,6.30
2018-05-12T12:36:34.232Z,7.80
2018-05-12T12:39:03.839Z,6.63
2018-05-12T12:41:33.699Z,6.13
2018-05-12T12:44:04.127Z,6.35
2018-05-12T12:46:34.971Z,6.20
2018-05-12T12:49:05.087Z,6.83
2018-05-12T12:51:35.494Z,5.93
2018-05-12T12:54:05.618Z,5.67
2018-05-12T12:56:36.774Z,5.15
2018-05-12T12:59:07.637Z,5.60
2018-05-12T13:01:38.243Z,5.75
2018-05-12T13:04:08.335Z,5.83
2018-05-12T13:06:38.431Z,5.73
2018-05-12T13:09:09.198Z,5.97
2018-05-12T13:11:40.568Z,4.85
2018-05-12T13:14:11.438Z,5.50
2018-05-12T13:16:41.546Z,5.03
2018-05-12T13:19:11.659Z,4.83
2018-05-12T13:21:42.362Z,6.22
2018-05-12T13:24:12.931Z,4.70
2018-05-12T13:26:43.328Z,5.12
2018-05-12T13:29:13.781Z,4.43
2018-05-12T13:31:43.859Z,5.37
2018-05-12T13:34:16.090Z,5.28
2018-05-12T13:36:46.159Z,5.40
2018-05-12T13:39:17.566Z,4.18
2018-05-12T13:41:47.638Z,4.83
2018-05-12T13:44:18.338Z,4.90
2018-05-12T13:46:48.942Z,4.55
2018-05-12T13:49:19.647Z,4.37
2018-05-12T13:51:50.056Z,4.10
2018-05-12T13:54:20.920Z,5.87
2018-05-12T13:56:52.480Z,4.62
2018-05-12T13:59:22.704Z,4.30
2018-05-12T14:01:52.813Z,4.63
2018-05-12T14:04:22.890Z,4.60
2018-05-12T14:06:53.519Z,4.15
2018-05-12T14:09:24.157Z,3.95
2018-05-12T14:11:54.763Z,4.07
2018-05-12T14:14:24.874Z,4.30
2018-05-12T14:16:55.263Z,5.22
2018-05-12T14:19:26.067Z,4.53
2018-05-12T14:21:56.683Z,3.95
2018-05-12T14:24:27.091Z,4.35
2018-05-12T14:26:57.706Z,4.12
2018-05-12T14:29:28.134Z,4.20
2018-05-12T14:31:59.504Z,4.07
2018-05-12T14:34:30.122Z,4.20
2018-05-12T14:37:00.551Z,3.85
2018-05-12T14:39:31.163Z,5.00
2018-05-12T14:42:01.572Z,10.60
2018-05-12T14:44:32.781Z,4.62
2018-05-12T14:47:03.383Z,4.15
2018-05-12T14:49:34.778Z,5.47
2018-05-12T14:52:04.866Z,4.00
2018-05-12T14:54:35.338Z,4.00
2018-05-12T14:57:05.402Z,5.60
2018-05-12T14:59:36.137Z,6.37
2018-05-12T15:02:06.757Z,3.87
2018-05-12T15:04:36.875Z,4.87
2018-05-12T15:07:07.548Z,3.97
2018-05-12T15:09:37.970Z,4.20
2018-05-12T15:12:08.071Z,4.20
2018-05-12T15:14:39.271Z,4.20
2018-05-12T15:17:09.330Z,5.50
2018-05-12T15:19:40.551Z,4.00
2018-05-12T15:22:11.154Z,3.90
2018-05-12T15:24:41.986Z,3.60
2018-05-12T15:27:12.539Z,5.18
2018-05-12T15:29:42.620Z,5.37
2018-05-12T15:32:13.787Z,5.20
2018-05-12T15:34:44.242Z,3.53
2018-05-12T15:37:14.809Z,5.10
2018-05-12T15:39:46.222Z,4.53
2018-05-12T15:42:16.645Z,3.70
2018-05-12T15:44:46.762Z,5.90
2018-05-12T15:47:17.467Z,5.22
2018-05-12T15:49:48.180Z,4.25
2018-05-12T15:52:19.561Z,3.78
2018-05-12T15:54:49.982Z,4.18
2018-05-12T15:57:21.148Z,4.15
2018-05-12T15:59:51.985Z,4.00
2018-05-12T16:02:22.641Z,3.60
2018-05-12T16:04:53.060Z,4.72
2018-05-12T16:07:23.668Z,4.40
2018-05-12T16:09:54.118Z,4.30
2018-05-12T16:12:24.769Z,3.83
2018-05-12T16:14:55.402Z,4.25
2018-05-12T16:17:25.476Z,4.77
2018-05-12T16:19:56.954Z,3.90
2018-05-12T16:22:27.379Z,3.70
2018-05-12T16:24:58.023Z,4.10
2018-05-12T16:27:28.471Z,4.07
2018-05-12T16:29:59.107Z,4.40
2018-05-12T16:32:29.723Z,3.60
2018-05-12T16:35:00.364Z,4.00
2018-05-12T16:37:30.456Z,4.10
2018-05-12T16:40:01.156Z,3.95
2018-05-12T16:42:31.586Z,3.45
2018-05-12T16:45:02.990Z,3.95
2018-05-12T16:47:33.425Z,3.65
2018-05-12T16:50:03.875Z,3.87
2018-05-12T16:52:34.501Z,3.78
2018-05-12T16:55:05.143Z,3.70
2018-05-12T16:57:35.787Z,3.75
2018-05-12T17:00:07.215Z,3.80
2018-05-12T17:02:37.307Z,4.13
2018-05-12T17:05:07.781Z,3.67
2018-05-12T17:07:38.180Z,4.45
2018-05-12T17:10:08.598Z,4.20
2018-05-12T17:12:39.231Z,3.50
2018-05-12T17:15:09.875Z,3.70
2018-05-12T17:17:40.535Z,3.75
2018-05-12T17:20:11.174Z,3.40
2018-05-12T17:22:42.373Z,3.80
2018-05-12T17:25:12.999Z,3.37
2018-05-12T17:27:43.614Z,3.58
2018-05-12T17:30:14.178Z,4.55
2018-05-12T17:32:44.819Z,3.65
2018-05-12T17:35:15.478Z,3.60
2018-05-12T17:37:47.617Z,3.72
2018-05-12T17:40:18.428Z,3.50
2018-05-12T17:42:48.821Z,4.45
2018-05-12T17:45:20.039Z,3.35
2018-05-12T17:47:50.649Z,3.75
2018-05-12T17:50:20.759Z,3.50
2018-05-12T17:52:51.166Z,3.30
2018-05-12T17:55:21.629Z,3.83
2018-05-12T17:57:51.879Z,6.07
2018-05-12T18:00:22.016Z,4.40
2018-05-12T18:02:52.898Z,5.93
2018-05-12T18:05:23.780Z,4.77
2018-05-12T18:07:54.455Z,3.92
2018-05-12T18:10:24.900Z,4.47
2018-05-12T18:12:55.451Z,4.62
2018-05-12T18:15:26.307Z,5.17
2018-05-12T18:17:56.890Z,4.30
2018-05-12T18:20:27.474Z,5.28
2018-05-12T18:22:57.562Z,4.37
2018-05-12T18:25:28.317Z,4.35
2018-05-12T18:27:58.423Z,4.53
2018-05-12T18:30:28.540Z,4.57
2018-05-12T18:32:58.622Z,4.50
2018-05-12T18:35:29.045Z,4.50
2018-05-12T18:37:59.731Z,4.25
2018-05-12T18:40:29.840Z,4.47
2018-05-12T18:43:00.266Z,5.75
2018-05-12T18:45:30.346Z,6.73
2018-05-12T18:48:00.454Z,8.53
2018-05-12T18:50:30.894Z,8.60
2018-05-12T18:53:00.968Z,8.63
2018-05-12T18:55:31.830Z,8.63
2018-05-12T18:58:02.531Z,7.97
2018-05-12T19:00:33.405Z,8.63
2018-05-12T19:03:04.142Z,8.52
2018-05-12T19:05:34.230Z,8.77
2018-05-12T19:08:04.648Z,9.27
2018-05-12T19:10:36.257Z,9.10
2018-05-12T19:13:06.966Z,10.73
2018-05-12T19:15:37.503Z,10.23
2018-05-12T19:18:08.287Z,12.23
2018-05-12T19:20:39.027Z,11.35
2018-05-12T19:23:09.191Z,10.82
2018-05-12T19:25:39.861Z,10.80
2018-05-12T19:28:09.925Z,9.33
2018-05-12T19:30:40.347Z,9.30
2018-05-12T19:33:10.419Z,8.50
2018-05-12T19:35:40.835Z,6.97
2018-05-12T19:38:10.910Z,7.37
2018-05-12T19:40:42.149Z,6.45
2018-05-12T19:43:12.240Z,5.83
2018-05-12T19:45:42.326Z,5.80
2018-05-12T19:48:12.395Z,6.70
2018-05-12T19:50:43.124Z,7.05
2018-05-12T19:53:13.199Z,7.50
2018-05-12T19:55:43.635Z,7.53
2018-05-12T19:58:13.760Z,8.00
2018-05-12T20:00:44.198Z,7.37
2018-05-12T20:03:14.270Z,7.23
2018-05-12T20:05:45.158Z,7.87
2018-05-12T20:08:15.578Z,7.43
2018-05-12T20:10:45.696Z,8.40
2018-05-12T20:13:15.402Z,8.80
2018-05-12T20:15:46.255Z,7.87
2018-05-12T20:18:16.313Z,9.23
2018-05-12T20:20:47.051Z,8.65
2018-05-12T20:23:17.493Z,8.60
2018-05-12T20:25:47.595Z,9.07
2018-05-12T20:28:18.234Z,9.95
2018-05-12T20:30:48.340Z,9.63
2018-05-12T20:33:18.435Z,9.80
2018-05-12T20:35:48.511Z,9.03
2018-05-12T20:38:19.675Z,10.00
2018-05-12T20:40:50.339Z,10.30
2018-05-12T20:43:20.399Z,9.33
2018-05-12T20:45:50.523Z,9.73
2018-05-12T20:48:21.896Z,9.13
2018-05-12T20:50:52.353Z,9.98
2018-05-12T20:53:22.472Z,9.70
2018-05-12T20:55:52.925Z,9.15
2018-05-12T20:58:23.358Z,10.25
2018-05-12T21:00:53.871Z,10.80
2018-05-12T21:03:25.076Z,10.18
2018-05-12T21:05:55.943Z,9.30
2018-05-12T21:08:26.379Z,10.32
2018-05-12T21:10:56.830Z,10.05
2018-05-12T21:13:27.461Z,10.38
2018-05-12T21:15:57.925Z,10.15
2018-05-12T21:18:28.368Z,10.02
2018-05-12T21:20:58.803Z,10.00
2018-05-12T21:23:28.895Z,9.53
2018-05-12T21:26:00.307Z,10.68
2018-05-12T21:28:31.160Z,10.68
2018-05-12T21:31:02.621Z,10.98
2018-05-12T21:33:33.280Z,11.27
2018-05-12T21:36:03.735Z,10.45
2018-05-12T21:38:34.375Z,10.40
2018-05-12T21:41:04.831Z,10.63
2018-05-12T21:43:35.252Z,10.40
2018-05-12T21:46:05.402Z,9.83
2018-05-12T21:48:36.012Z,10.20
2018-05-12T21:51:06.132Z,9.73
2018-05-12T21:53:36.550Z,9.85
2018-05-12T21:56:06.655Z,9.40
2018-05-12T21:58:36.860Z,11.05
2018-05-12T22:01:08.264Z,10.20
2018-05-12T22:03:38.357Z,9.77
2018-05-12T22:06:08.483Z,10.00
2018-05-12T22:08:39.007Z,10.25
2018-05-12T22:11:09.103Z,9.53
2018-05-12T22:13:39.164Z,7.83
2018-05-12T22:16:09.281Z,8.30
2018-05-12T22:18:39.785Z,7.65
2018-05-12T22:21:10.746Z,7.40
2018-05-12T22:23:40.915Z,7.60
2018-05-12T22:26:11.009Z,6.63
2018-05-12T22:28:41.398Z,7.12
2018-05-12T22:31:12.242Z,5.83
2018-05-12T22:33:42.650Z,6.97
2018-05-12T22:36:12.726Z,7.00
2018-05-12T22:38:45.829Z,6.80
2018-05-12T22:41:16.279Z,6.50
2018-05-12T22:43:46.346Z,5.97
2018-05-12T22:46:16.776Z,6.90
2018-05-12T22:48:47.199Z,6.35
2018-05-12T22:51:17.293Z,6.27
2018-05-12T22:53:47.994Z,6.30
2018-05-12T22:56:18.090Z,5.90
2018-05-12T22:58:48.492Z,5.20
2018-05-12T23:01:18.939Z,5.60
2018-05-12T23:03:49.006Z,5.57
2018-05-12T23:06:19.728Z,6.25
2018-05-12T23:08:50.348Z,5.50
2018-05-12T23:11:20.964Z,5.45
2018-05-12T23:13:51.022Z,5.30
2018-05-12T23:16:21.131Z,5.23
2018-05-12T23:18:51.531Z,5.25
2018-05-12T23:21:21.646Z,4.93
2018-05-12T23:23:52.260Z,5.50
2018-05-12T23:26:22.893Z,4.85
2018-05-12T23:28:53.730Z,5.40
2018-05-12T23:31:25.106Z,4.85
2018-05-12T23:33:55.170Z,5.57
2018-05-12T23:36:25.247Z,4.50
2018-05-12T23:38:57.177Z,4.85
2018-05-12T23:41:28.063Z,4.77
2018-05-12T23:43:58.118Z,5.13
2018-05-12T23:46:28.534Z,5.00
2018-05-12T23:48:58.735Z,5.33
2018-05-12T23:51:28.898Z,5.30
2018-05-12T23:53:59.158Z,5.10
2018-05-12T23:56:29.581Z,4.97
2018-05-12T23:59:00.406Z,5.33
